createdAt,value
2019-05-21T00:00:58.263Z,11.4
2019-05-21T00:06:00.715Z,11.4
2019-05-21T00:11:03.207Z,11.4
2019-05-21T00:16:05.613Z,11.4
2019-05-21T00:21:08.148Z,11.4
2019-05-21T00:26:10.526Z,11.5
2019-05-21T00:31:12.993Z,11.4
2019-05-21T00:36:15.464Z,11.2
2019-05-21T00:41:17.992Z,11.1
2019-05-21T00:46:20.461Z,10.9
2019-05-21T00:51:23.009Z,10.8
2019-05-21T00:56:25.280Z,10.6
2019-05-21T01:01:28.090Z,10.5
2019-05-21T01:06:30.326Z,10.4
2019-05-21T01:11:32.712Z,10.3
2019-05-21T01:16:35.118Z,10.2
2019-05-21T01:21:37.704Z,10.1
2019-05-21T01:26:40.045Z,10
2019-05-21T01:31:42.485Z,9.9
2019-05-21T01:36:44.977Z,9.8
2019-05-21T01:41:47.437Z,9.8
2019-05-21T01:46:49.945Z,9.6
2019-05-21T01:51:52.417Z,9.5
2019-05-21T01:56:54.771Z,9.4
2019-05-21T02:01:57.253Z,9.3
2019-05-21T02:06:59.719Z,9.3
2019-05-21T02:12:02.167Z,9.2
2019-05-21T02:17:04.607Z,9.1
2019-05-21T02:22:07.165Z,9
2019-05-21T02:27:09.563Z,8.9
2019-05-21T02:32:11.985Z,8.9
2019-05-21T02:37:14.484Z,8.9
2019-05-21T02:42:16.882Z,9
2019-05-21T02:47:19.361Z,9.1
2019-05-21T02:52:21.846Z,9.2
2019-05-21T02:57:24.280Z,9.2
2019-05-21T03:02:26.733Z,9.3
2019-05-21T03:07:29.186Z,9.3
2019-05-21T03:12:31.658Z,9.3
2019-05-21T03:17:34.113Z,9.3
2019-05-21T03:22:36.609Z,9.1
2019-05-21T03:27:39.026Z,9
2019-05-21T03:32:41.466Z,8.9
2019-05-21T03:37:43.943Z,8.8
2019-05-21T03:42:46.375Z,8.8
2019-05-21T03:47:48.829Z,8.7
2019-05-21T03:52:51.392Z,8.7
2019-05-21T03:57:53.832Z,8.7
2019-05-21T04:02:56.214Z,8.7
2019-05-21T04:07:58.729Z,8.8
2019-05-21T04:13:01.177Z,9
2019-05-21T04:18:03.635Z,9.2
2019-05-21T04:23:06.057Z,9.4
2019-05-21T04:28:08.535Z,9.6
2019-05-21T04:33:10.974Z,9.8
2019-05-21T04:38:13.452Z,10.2
2019-05-21T04:43:15.929Z,10.5
2019-05-21T04:48:18.382Z,11
2019-05-21T04:53:20.796Z,11.6
2019-05-21T04:58:23.256Z,12.2
2019-05-21T05:08:28.160Z,13.1
2019-05-21T05:13:30.624Z,13.5
2019-05-21T05:18:33.096Z,13.7
2019-05-21T05:23:35.533Z,13.8
2019-05-21T05:28:38.018Z,13.8
2019-05-21T05:33:40.447Z,13.9
2019-05-21T05:38:42.897Z,13.9
2019-05-21T05:43:45.361Z,14
2019-05-21T05:48:47.835Z,14
2019-05-21T05:53:50.283Z,14.3
2019-05-21T05:58:52.857Z,14.4
2019-05-21T06:03:55.183Z,14.5
2019-05-21T06:08:57.685Z,14.7
2019-05-21T06:14:00.133Z,15
2019-05-21T06:19:03.037Z,15.5
2019-05-21T06:24:05.040Z,15.9
2019-05-21T06:29:07.500Z,16.2
2019-05-21T06:34:09.939Z,16.3
2019-05-21T06:39:12.441Z,16.7
2019-05-21T06:44:14.878Z,16.7
2019-05-21T06:49:17.348Z,16.6
2019-05-21T06:54:19.778Z,16.5
2019-05-21T06:59:22.237Z,16.6
2019-05-21T07:04:24.738Z,16.9
2019-05-21T07:09:27.178Z,17.9
2019-05-21T07:14:29.599Z,19.6
2019-05-21T07:19:32.071Z,21.1
2019-05-21T07:24:34.528Z,22.2
2019-05-21T07:29:37.015Z,22.4
2019-05-21T07:34:39.477Z,22.9
2019-05-21T07:39:42.043Z,24.1
2019-05-21T07:44:44.458Z,24.2
2019-05-21T07:49:46.820Z,24.7
2019-05-21T07:54:49.345Z,26.6
2019-05-21T07:59:51.794Z,28
2019-05-21T08:04:54.252Z,29.4
2019-05-21T08:09:56.863Z,30
2019-05-21T08:14:59.121Z,30.1
2019-05-21T08:20:08.974Z,30.8
2019-05-21T08:25:05.101Z,31.3
2019-05-21T08:30:06.626Z,32.7
2019-05-21T08:35:08.954Z,33.7
2019-05-21T08:40:11.459Z,34.1
2019-05-21T08:45:13.897Z,33
2019-05-21T08:50:16.331Z,30.4
2019-05-21T08:55:18.960Z,28.2
2019-05-21T09:00:21.255Z,26.6
2019-05-21T09:05:23.879Z,26.6
2019-05-21T09:15:28.669Z,25.2
2019-05-21T09:20:31.086Z,25.3
2019-05-21T09:25:33.667Z,26.7
2019-05-21T09:30:36.013Z,29.1
2019-05-21T09:35:38.477Z,29.8
2019-05-21T09:40:40.942Z,30.2
2019-05-21T09:50:45.835Z,31
2019-05-21T09:55:48.296Z,29.5
2019-05-21T10:00:50.775Z,27.3
2019-05-21T10:05:53.253Z,25.5
2019-05-21T10:10:55.700Z,24
2019-05-21T10:16:01.141Z,22.9
2019-05-21T10:21:00.762Z,22.5
2019-05-21T10:26:03.044Z,22.5
2019-05-21T10:31:05.557Z,22.7
2019-05-21T10:36:07.977Z,22.8
2019-05-21T10:41:10.451Z,22.8
2019-05-21T10:46:12.869Z,23.1
2019-05-21T10:51:15.418Z,23.1
2019-05-21T10:56:17.796Z,24.2
2019-05-21T11:01:20.278Z,25.8
2019-05-21T11:06:22.751Z,27.4
2019-05-21T11:11:25.195Z,28.8
2019-05-21T11:16:27.648Z,30.9
2019-05-21T11:21:30.122Z,33.3
2019-05-21T11:26:32.559Z,34
2019-05-21T11:31:35.029Z,34.1
2019-05-21T11:36:37.573Z,33.8
2019-05-21T11:41:39.939Z,34.6
2019-05-21T11:46:42.405Z,35.9
2019-05-21T11:51:44.853Z,36.8
2019-05-21T11:56:47.321Z,36.7
2019-05-21T12:01:49.780Z,36.9
2019-05-21T12:06:52.254Z,37.3
2019-05-21T12:11:54.824Z,37.6
2019-05-21T12:16:57.171Z,37.5
2019-05-21T12:21:59.611Z,37.4
2019-05-21T12:27:02.125Z,36.8
2019-05-21T12:32:04.548Z,35.5
2019-05-21T12:37:07.032Z,34.2
2019-05-21T12:42:09.466Z,33.7
2019-05-21T12:47:11.922Z,32.9
2019-05-21T12:52:14.394Z,32.3
2019-05-21T12:57:16.857Z,32.2
2019-05-21T13:02:19.332Z,32.2
2019-05-21T13:07:21.986Z,31.4
2019-05-21T13:12:24.230Z,30.6
2019-05-21T13:17:26.725Z,29.7
2019-05-21T13:22:29.360Z,28.5
2019-05-21T13:27:31.625Z,27.6
2019-05-21T13:32:34.090Z,26.8
2019-05-21T13:37:36.582Z,26.5
2019-05-21T13:42:38.973Z,26.2
2019-05-21T13:47:41.552Z,26
2019-05-21T13:52:43.965Z,26.1
2019-05-21T13:57:46.364Z,26.1
2019-05-21T14:02:48.835Z,26.1
2019-05-21T14:07:51.289Z,25.6
2019-05-21T14:12:53.757Z,25.3
2019-05-21T14:17:56.246Z,25.4
2019-05-21T14:22:58.669Z,25.6
2019-05-21T14:28:01.108Z,26.2
2019-05-21T14:33:03.586Z,26.9
2019-05-21T14:38:06.056Z,27.6
2019-05-21T14:43:08.606Z,27.9
2019-05-21T14:48:10.986Z,27.9
2019-05-21T14:53:13.598Z,27.6
2019-05-21T14:58:15.865Z,27.1
2019-05-21T15:03:25.082Z,26.4
2019-05-21T15:08:20.786Z,25.7
2019-05-21T15:13:23.328Z,25
2019-05-21T15:18:25.741Z,24.6
2019-05-21T15:23:28.178Z,24.4
2019-05-21T15:28:30.640Z,24.3
2019-05-21T15:33:33.314Z,24.2
2019-05-21T15:38:49.095Z,24.1
2019-05-21T15:43:38.030Z,24.1
2019-05-21T15:48:40.524Z,24
2019-05-21T15:53:43.065Z,23.9
2019-05-21T15:58:45.383Z,23.8
2019-05-21T16:03:47.872Z,23.6
2019-05-21T16:08:50.384Z,23.6
2019-05-21T16:13:52.790Z,23.7
2019-05-21T16:18:55.251Z,23.7
2019-05-21T16:23:57.668Z,23.8
2019-05-21T16:29:00.204Z,23.7
2019-05-21T16:34:02.596Z,23.6
2019-05-21T16:39:05.078Z,23.4
2019-05-21T16:44:07.540Z,23.3
2019-05-21T16:49:10.082Z,23.2
2019-05-21T16:54:12.439Z,23.2
2019-05-21T16:59:14.881Z,23.1
2019-05-21T17:04:17.353Z,22.8
2019-05-21T17:09:19.811Z,22.6
2019-05-21T17:14:22.268Z,22.3
2019-05-21T17:19:24.733Z,22.1
2019-05-21T17:24:28.658Z,21.9
2019-05-21T17:29:29.656Z,21.7
2019-05-21T17:34:32.126Z,21.4
2019-05-21T17:39:34.586Z,21.1
2019-05-21T17:44:37.219Z,20.8
2019-05-21T17:49:39.489Z,20.5
2019-05-21T17:54:55.448Z,20.3
2019-05-21T17:59:44.471Z,20.2
2019-05-21T18:04:46.871Z,20.2
2019-05-21T18:09:49.370Z,20.1
2019-05-21T18:14:51.818Z,20.1
2019-05-21T18:19:54.424Z,20
2019-05-21T18:24:56.682Z,19.9
2019-05-21T18:29:59.309Z,19.8
2019-05-21T18:35:01.643Z,19.6
2019-05-21T18:40:04.061Z,19.4
2019-05-21T18:45:06.575Z,19.2
2019-05-21T18:50:09.272Z,18.9
2019-05-21T18:55:11.445Z,18.7
2019-05-21T19:00:13.919Z,18.6
2019-05-21T19:05:16.352Z,18.4
2019-05-21T19:10:18.794Z,18.2
2019-05-21T19:15:21.286Z,17.9
2019-05-21T19:20:23.735Z,17.7
2019-05-21T19:25:26.178Z,17.5
2019-05-21T19:30:28.649Z,17.5
2019-05-21T19:35:33.114Z,17.4
2019-05-21T19:40:33.576Z,17.4
2019-05-21T19:45:36.062Z,17.3
2019-05-21T19:50:38.497Z,17.2
2019-05-21T19:55:40.926Z,17.2
2019-05-21T20:00:43.377Z,17.2
2019-05-21T20:05:45.844Z,17
2019-05-21T20:10:48.323Z,16.9
2019-05-21T20:15:50.817Z,16.8
2019-05-21T20:20:53.228Z,16.6
2019-05-21T20:25:56.936Z,16.5
2019-05-21T20:30:58.159Z,16.4
2019-05-21T20:36:00.618Z,16.3
2019-05-21T20:41:03.093Z,16.3
2019-05-21T20:46:05.568Z,16.2
2019-05-21T20:51:08.006Z,16.1
2019-05-21T20:56:10.431Z,16
2019-05-21T21:01:12.870Z,15.9
2019-05-21T21:06:15.393Z,15.8
2019-05-21T21:11:17.826Z,15.8
2019-05-21T21:16:20.291Z,15.7
2019-05-21T21:21:22.758Z,15.6
2019-05-21T21:26:25.214Z,15.5
2019-05-21T21:31:27.734Z,15.5
2019-05-21T21:36:30.101Z,15.4
2019-05-21T21:41:32.545Z,15.4
2019-05-21T21:46:35.035Z,15.3
2019-05-21T21:51:37.478Z,15.2
2019-05-21T21:56:39.910Z,15.2
2019-05-21T22:01:42.376Z,15.1
2019-05-21T22:06:44.875Z,15
2019-05-21T22:11:47.296Z,14.9
2019-05-21T22:16:51.652Z,14.8
2019-05-21T22:21:52.228Z,14.6
2019-05-21T22:26:54.803Z,14.5
2019-05-21T22:31:57.135Z,14.3
2019-05-21T22:36:59.622Z,14.1
2019-05-21T22:42:02.150Z,14
2019-05-21T22:47:04.532Z,14
2019-05-21T22:52:07.027Z,13.9
2019-05-21T22:57:09.424Z,13.9
2019-05-21T23:02:11.878Z,13.9
2019-05-21T23:07:14.349Z,13.9
2019-05-21T23:12:16.790Z,13.9
2019-05-21T23:17:19.319Z,13.9
2019-05-21T23:22:21.786Z,13.9
2019-05-21T23:27:24.190Z,14
2019-05-21T23:37:29.094Z,14
2019-05-21T23:42:31.585Z,14
2019-05-21T23:47:34.016Z,14
2019-05-21T23:52:37.166Z,14.1
2019-05-21T23:57:38.938Z,14
